Flight Briefing for CPX316

Departure Arrival
Chicago/Rockford International Airport (KRFD)
Click to view FAA NOTAMS
Ted Stevens Anchorage International Airport (PANC)
Click to view FAA NOTAMS
Departure Time Arrival Time
N/A N/A
Aircraft Distance
B767-300BDSF 2468nm
Departure METAR Arrival METAR
KRFD 271054Z 09007KT 10SM BKN220 13/09 A3002 RMK AO2 SLP161 T01330089 $ PANC 271053Z 15015G23KT 10SM FEW080 SCT110 SCT220 11/05 A2980 RMK AO2 PK WND 14031/1000 SLP092 T01110050
Suggested Route
ODI J36 GEP MOT J483 VLN J475 YWV NCA11 REMBY WITTI4


View recent IFR Routes data
Notes



Charts and Procedures

Charts for KRFD
No chart available
Charts for PANC
No chart available

Windy.com Weather Map